Time;durP1;ratioP1;P1;durP2;ratioP2;P2;SDS_P1;SDS_P2;PMS_P1;PMS_P2;Temp;Humidity;BMP_temperature;BMP_pressure;BME280_temperature;BME280_humidity;BME280_pressure;Samples;Min_cycle;Max_cycle;Signal;HPM_P1;HPM_P2
2022/08/30 00:01:04;;;;;;;0.3;0.3;;;;;;;18.8;100.0;101790;;;;
2022/08/30 00:02:00;;;;;;;0.3;0.3;;;;;;;18.8;100.0;101790;;;;
2022/08/30 00:03:00;;;;;;;0.3;0.3;;;;;;;18.8;100.0;101790;;;;
2022/08/30 00:04:00;;;;;;;0.3;0.3;;;;;;;18.8;100.0;101790;;;;
2022/08/30 00:05:01;;;;;;;0.3;0.3;;;;;;;18.8;100.0;101790;;;;
2022/08/30 00:06:00;;;;;;;0.3;0.3;;;;;;;18.8;100.0;101790;;;;
2022/08/30 00:07:02;;;;;;;0.3;0.3;;;;;;;18.7;100.0;101790;;;;
2022/08/30 00:08:00;;;;;;;0.3;0.3;;;;;;;18.7;100.0;101790;;;;
2022/08/30 00:09:01;;;;;;;0.3;0.3;;;;;;;18.7;100.0;101790;;;;
2022/08/30 00:10:00;;;;;;;0.3;0.3;;;;;;;18.7;100.0;101790;;;;
2022/08/30 00:11:01;;;;;;;0.3;0.3;;;;;;;18.7;100.0;101790;;;;
2022/08/30 00:12:00;;;;;;;0.3;0.3;;;;;;;18.7;100.0;101790;;;;
2022/08/30 00:13:00;;;;;;;0.3;0.3;;;;;;;18.6;100.0;101790;;;;
2022/08/30 00:14:00;;;;;;;0.3;0.3;;;;;;;18.6;100.0;101790;;;;
2022/08/30 00:15:00;;;;;;;0.3;0.3;;;;;;;18.7;100.0;101790;;;;
2022/08/30 00:16:00;;;;;;;0.3;0.3;;;;;;;18.7;100.0;101790;;;;
2022/08/30 00:17:00;;;;;;;0.3;0.3;;;;;;;18.7;100.0;101790;;;;
2022/08/30 00:18:00;;;;;;;0.3;0.3;;;;;;;18.7;100.0;101790;;;;
2022/08/30 00:19:01;;;;;;;0.3;0.3;;;;;;;18.5;100.0;101780;;;;
2022/08/30 00:20:00;;;;;;;0.3;0.3;;;;;;;18.5;100.0;101780;;;;
2022/08/30 00:21:00;;;;;;;0.3;0.3;;;;;;;18.5;100.0;101780;;;;
2022/08/30 00:22:00;;;;;;;0.3;0.3;;;;;;;18.5;100.0;101780;;;;
2022/08/30 00:23:00;;;;;;;0.4;0.4;;;;;;;18.4;100.0;101780;;;;
2022/08/30 00:24:00;;;;;;;0.4;0.4;;;;;;;18.4;100.0;101780;;;;
2022/08/30 00:25:00;;;;;;;0.4;0.4;;;;;;;18.4;100.0;101790;;;;
2022/08/30 00:26:01;;;;;;;0.4;0.4;;;;;;;18.4;100.0;101790;;;;
2022/08/30 00:27:00;;;;;;;0.4;0.4;;;;;;;18.4;100.0;101790;;;;
2022/08/30 00:28:01;;;;;;;0.4;0.4;;;;;;;18.4;100.0;101790;;;;
2022/08/30 00:29:00;;;;;;;0.4;0.4;;;;;;;18.5;100.0;101790;;;;
2022/08/30 00:30:00;;;;;;;0.4;0.4;;;;;;;18.5;100.0;101790;;;;
2022/08/30 00:31:00;;;;;;;0.4;0.4;;;;;;;18.4;100.0;101790;;;;
2022/08/30 00:32:01;;;;;;;0.4;0.4;;;;;;;18.4;100.0;101790;;;;
2022/08/30 00:33:00;;;;;;;0.4;0.4;;;;;;;18.4;100.0;101790;;;;
2022/08/30 00:34:00;;;;;;;0.4;0.4;;;;;;;18.4;100.0;101790;;;;
2022/08/30 00:35:00;;;;;;;0.4;0.4;;;;;;;18.3;100.0;101790;;;;
2022/08/30 00:36:00;;;;;;;0.4;0.4;;;;;;;18.3;100.0;101790;;;;
2022/08/30 00:37:01;;;;;;;0.4;0.4;;;;;;;18.3;100.0;101790;;;;
2022/08/30 00:38:00;;;;;;;0.4;0.4;;;;;;;18.3;100.0;101790;;;;
2022/08/30 00:39:00;;;;;;;0.4;0.4;;;;;;;18.3;100.0;101790;;;;
2022/08/30 00:40:00;;;;;;;0.4;0.4;;;;;;;18.3;100.0;101790;;;;
2022/08/30 00:41:00;;;;;;;0.4;0.4;;;;;;;18.1;100.0;101790;;;;
2022/08/30 00:42:00;;;;;;;0.4;0.4;;;;;;;18.1;100.0;101790;;;;
2022/08/30 00:43:11;;;;;;;0.6;0.6;;;;;;;18.2;100.0;101780;;;;
2022/08/30 00:44:01;;;;;;;0.6;0.6;;;;;;;18.2;100.0;101780;;;;
2022/08/30 00:45:04;;;;;;;0.6;0.6;;;;;;;18.2;100.0;101780;;;;
2022/08/30 00:46:03;;;;;;;0.6;0.6;;;;;;;18.2;100.0;101780;;;;
2022/08/30 00:47:00;;;;;;;0.6;0.6;;;;;;;18.1;100.0;101790;;;;
2022/08/30 00:48:00;;;;;;;0.6;0.6;;;;;;;18.1;100.0;101790;;;;
2022/08/30 00:49:03;;;;;;;0.6;0.6;;;;;;;18.1;100.0;101790;;;;
2022/08/30 00:50:00;;;;;;;0.6;0.6;;;;;;;18.1;100.0;101790;;;;
2022/08/30 00:51:02;;;;;;;0.6;0.6;;;;;;;18.1;100.0;101790;;;;
2022/08/30 00:52:01;;;;;;;0.6;0.6;;;;;;;18.1;100.0;101790;;;;
2022/08/30 00:53:02;;;;;;;0.6;0.6;;;;;;;18.1;100.0;101790;;;;
2022/08/30 00:54:00;;;;;;;0.6;0.6;;;;;;;18.1;100.0;101790;;;;
2022/08/30 00:55:01;;;;;;;0.6;0.6;;;;;;;18.1;100.0;101780;;;;
2022/08/30 00:56:00;;;;;;;0.6;0.6;;;;;;;18.1;100.0;101780;;;;
2022/08/30 00:57:00;;;;;;;0.6;0.6;;;;;;;18.1;100.0;101790;;;;
2022/08/30 00:58:04;;;;;;;0.6;0.6;;;;;;;18.1;100.0;101790;;;;
2022/08/30 00:59:03;;;;;;;0.6;0.6;;;;;;;18.0;100.0;101790;;;;
2022/08/30 01:00:00;;;;;;;0.6;0.6;;;;;;;18.0;100.0;101790;;;;
2022/08/30 01:01:00;;;;;;;0.6;0.6;;;;;;;18.0;100.0;101790;;;;
2022/08/30 01:02:01;;;;;;;0.6;0.6;;;;;;;18.0;100.0;101790;;;;
2022/08/30 01:03:00;;;;;;;0.5;0.5;;;;;;;18.0;100.0;101790;;;;
2022/08/30 01:04:02;;;;;;;0.5;0.5;;;;;;;18.0;100.0;101790;;;;
2022/08/30 01:05:01;;;;;;;0.5;0.5;;;;;;;18.0;100.0;101790;;;;
2022/08/30 01:06:00;;;;;;;0.5;0.5;;;;;;;18.0;100.0;101790;;;;
2022/08/30 01:07:00;;;;;;;0.5;0.5;;;;;;;18.0;100.0;101790;;;;
2022/08/30 01:08:00;;;;;;;0.5;0.5;;;;;;;18.0;100.0;101790;;;;
2022/08/30 01:09:01;;;;;;;0.5;0.5;;;;;;;18.0;100.0;101800;;;;
2022/08/30 01:10:00;;;;;;;0.5;0.5;;;;;;;18.0;100.0;101800;;;;
2022/08/30 01:11:00;;;;;;;0.5;0.5;;;;;;;18.0;100.0;101800;;;;
2022/08/30 01:12:00;;;;;;;0.5;0.5;;;;;;;18.0;100.0;101800;;;;
2022/08/30 01:13:00;;;;;;;0.5;0.5;;;;;;;17.9;100.0;101800;;;;
2022/08/30 01:14:01;;;;;;;0.5;0.5;;;;;;;17.9;100.0;101800;;;;
2022/08/30 01:15:00;;;;;;;0.5;0.5;;;;;;;17.8;100.0;101800;;;;
2022/08/30 01:16:02;;;;;;;0.5;0.5;;;;;;;17.8;100.0;101800;;;;
2022/08/30 01:17:00;;;;;;;0.5;0.5;;;;;;;17.9;100.0;101800;;;;
2022/08/30 01:18:01;;;;;;;0.5;0.5;;;;;;;17.9;100.0;101800;;;;
2022/08/30 01:19:00;;;;;;;0.5;0.5;;;;;;;17.8;100.0;101800;;;;
2022/08/30 01:20:04;;;;;;;0.5;0.5;;;;;;;17.8;100.0;101800;;;;
2022/08/30 01:21:09;;;;;;;0.5;0.5;;;;;;;17.8;100.0;101790;;;;
2022/08/30 01:22:04;;;;;;;0.5;0.5;;;;;;;17.8;100.0;101790;;;;
2022/08/30 01:23:05;;;;;;;0.6;0.6;;;;;;;17.7;100.0;101790;;;;
2022/08/30 01:24:00;;;;;;;0.6;0.6;;;;;;;17.7;100.0;101790;;;;
2022/08/30 01:25:01;;;;;;;0.6;0.6;;;;;;;17.7;100.0;101800;;;;
2022/08/30 01:26:01;;;;;;;0.6;0.6;;;;;;;17.7;100.0;101800;;;;
2022/08/30 01:27:00;;;;;;;0.6;0.6;;;;;;;17.7;100.0;101800;;;;
2022/08/30 01:28:03;;;;;;;0.6;0.6;;;;;;;17.7;100.0;101800;;;;
2022/08/30 01:29:03;;;;;;;0.6;0.6;;;;;;;17.7;100.0;101810;;;;
2022/08/30 01:30:00;;;;;;;0.6;0.6;;;;;;;17.7;100.0;101810;;;;
2022/08/30 01:31:00;;;;;;;0.6;0.6;;;;;;;17.7;100.0;101800;;;;
2022/08/30 01:32:00;;;;;;;0.6;0.6;;;;;;;17.7;100.0;101800;;;;
2022/08/30 01:33:01;;;;;;;0.6;0.6;;;;;;;17.9;100.0;101800;;;;
2022/08/30 01:34:00;;;;;;;0.6;0.6;;;;;;;17.9;100.0;101800;;;;
2022/08/30 01:35:00;;;;;;;0.6;0.6;;;;;;;17.8;100.0;101810;;;;
2022/08/30 01:36:02;;;;;;;0.6;0.6;;;;;;;17.8;100.0;101810;;;;
2022/08/30 01:37:00;;;;;;;0.6;0.6;;;;;;;17.8;100.0;101810;;;;
2022/08/30 01:38:00;;;;;;;0.6;0.6;;;;;;;17.8;100.0;101810;;;;
2022/08/30 01:39:01;;;;;;;0.6;0.6;;;;;;;17.7;100.0;101810;;;;
2022/08/30 01:40:00;;;;;;;0.6;0.6;;;;;;;17.7;100.0;101810;;;;
2022/08/30 01:41:07;;;;;;;0.6;0.6;;;;;;;17.7;100.0;101810;;;;
2022/08/30 01:42:00;;;;;;;0.6;0.6;;;;;;;17.7;100.0;101810;;;;
2022/08/30 01:43:00;;;;;;;0.5;0.5;;;;;;;17.7;100.0;101820;;;;
2022/08/30 01:44:02;;;;;;;0.5;0.5;;;;;;;17.7;100.0;101820;;;;
2022/08/30 01:45:00;;;;;;;0.5;0.5;;;;;;;17.8;100.0;101810;;;;
2022/08/30 01:46:01;;;;;;;0.5;0.5;;;;;;;17.8;100.0;101810;;;;
2022/08/30 01:47:00;;;;;;;0.5;0.5;;;;;;;17.8;100.0;101810;;;;
2022/08/30 01:48:03;;;;;;;0.5;0.5;;;;;;;17.8;100.0;101810;;;;
2022/08/30 01:49:02;;;;;;;0.5;0.5;;;;;;;17.8;100.0;101810;;;;
2022/08/30 01:50:00;;;;;;;0.5;0.5;;;;;;;17.8;100.0;101810;;;;
2022/08/30 01:51:00;;;;;;;0.5;0.5;;;;;;;17.6;100.0;101800;;;;
2022/08/30 01:52:01;;;;;;;0.5;0.5;;;;;;;17.6;100.0;101800;;;;
2022/08/30 01:53:00;;;;;;;0.5;0.5;;;;;;;17.6;100.0;101800;;;;
2022/08/30 01:54:00;;;;;;;0.5;0.5;;;;;;;17.6;100.0;101800;;;;
2022/08/30 01:55:00;;;;;;;0.5;0.5;;;;;;;17.6;100.0;101800;;;;
2022/08/30 01:56:00;;;;;;;0.5;0.5;;;;;;;17.6;100.0;101800;;;;
2022/08/30 01:57:00;;;;;;;0.5;0.5;;;;;;;17.5;100.0;101800;;;;
2022/08/30 01:58:00;;;;;;;0.5;0.5;;;;;;;17.5;100.0;101800;;;;
2022/08/30 01:59:03;;;;;;;0.5;0.5;;;;;;;17.6;100.0;101800;;;;
2022/08/30 02:00:00;;;;;;;0.5;0.5;;;;;;;17.6;100.0;101800;;;;
2022/08/30 02:01:00;;;;;;;0.5;0.5;;;;;;;17.6;100.0;101800;;;;
2022/08/30 02:02:00;;;;;;;0.5;0.5;;;;;;;17.6;100.0;101800;;;;
2022/08/30 02:03:00;;;;;;;0.4;0.4;;;;;;;17.6;100.0;101800;;;;
2022/08/30 02:04:00;;;;;;;0.4;0.4;;;;;;;17.6;100.0;101800;;;;
2022/08/30 02:05:00;;;;;;;0.4;0.4;;;;;;;17.5;100.0;101800;;;;
2022/08/30 02:06:09;;;;;;;0.4;0.4;;;;;;;17.5;100.0;101800;;;;
2022/08/30 02:07:00;;;;;;;0.4;0.4;;;;;;;17.5;100.0;101800;;;;
2022/08/30 02:08:00;;;;;;;0.4;0.4;;;;;;;17.5;100.0;101800;;;;
2022/08/30 02:09:01;;;;;;;0.4;0.4;;;;;;;17.5;100.0;101800;;;;
2022/08/30 02:10:00;;;;;;;0.4;0.4;;;;;;;17.5;100.0;101800;;;;
2022/08/30 02:11:00;;;;;;;0.4;0.4;;;;;;;17.5;100.0;101790;;;;
2022/08/30 02:12:00;;;;;;;0.4;0.4;;;;;;;17.5;100.0;101790;;;;
2022/08/30 02:13:00;;;;;;;0.4;0.4;;;;;;;17.5;100.0;101790;;;;
2022/08/30 02:14:00;;;;;;;0.4;0.4;;;;;;;17.5;100.0;101790;;;;
2022/08/30 02:15:00;;;;;;;0.4;0.4;;;;;;;17.4;100.0;101790;;;;
2022/08/30 02:16:00;;;;;;;0.4;0.4;;;;;;;17.4;100.0;101790;;;;
2022/08/30 02:17:01;;;;;;;0.4;0.4;;;;;;;17.4;100.0;101790;;;;
2022/08/30 02:18:01;;;;;;;0.4;0.4;;;;;;;17.4;100.0;101790;;;;
2022/08/30 02:19:00;;;;;;;0.4;0.4;;;;;;;17.4;100.0;101790;;;;
2022/08/30 02:20:00;;;;;;;0.4;0.4;;;;;;;17.4;100.0;101790;;;;
2022/08/30 02:21:00;;;;;;;0.4;0.4;;;;;;;17.4;100.0;101780;;;;
2022/08/30 02:22:00;;;;;;;0.4;0.4;;;;;;;17.4;100.0;101780;;;;
2022/08/30 02:23:01;;;;;;;0.3;0.3;;;;;;;17.3;100.0;101780;;;;
2022/08/30 02:24:00;;;;;;;0.3;0.3;;;;;;;17.3;100.0;101780;;;;
2022/08/30 02:25:00;;;;;;;0.3;0.3;;;;;;;17.3;100.0;101780;;;;
2022/08/30 02:26:00;;;;;;;0.3;0.3;;;;;;;17.3;100.0;101780;;;;
2022/08/30 02:27:00;;;;;;;0.3;0.3;;;;;;;17.3;100.0;101780;;;;
2022/08/30 02:28:00;;;;;;;0.3;0.3;;;;;;;17.3;100.0;101780;;;;
2022/08/30 02:29:00;;;;;;;0.3;0.3;;;;;;;17.2;100.0;101780;;;;
2022/08/30 02:30:00;;;;;;;0.3;0.3;;;;;;;17.2;100.0;101780;;;;
2022/08/30 02:31:00;;;;;;;0.3;0.3;;;;;;;17.3;100.0;101780;;;;
2022/08/30 02:32:00;;;;;;;0.3;0.3;;;;;;;17.3;100.0;101780;;;;
2022/08/30 02:33:00;;;;;;;0.3;0.3;;;;;;;17.3;100.0;101790;;;;
2022/08/30 02:34:00;;;;;;;0.3;0.3;;;;;;;17.3;100.0;101790;;;;
2022/08/30 02:35:00;;;;;;;0.3;0.3;;;;;;;17.1;100.0;101780;;;;
2022/08/30 02:36:00;;;;;;;0.3;0.3;;;;;;;17.1;100.0;101780;;;;
2022/08/30 02:37:00;;;;;;;0.3;0.3;;;;;;;17.1;100.0;101790;;;;
2022/08/30 02:38:00;;;;;;;0.3;0.3;;;;;;;17.1;100.0;101790;;;;
2022/08/30 02:39:00;;;;;;;0.3;0.3;;;;;;;17.2;100.0;101790;;;;
2022/08/30 02:40:00;;;;;;;0.3;0.3;;;;;;;17.2;100.0;101790;;;;
2022/08/30 02:41:00;;;;;;;0.3;0.3;;;;;;;17.0;100.0;101780;;;;
2022/08/30 02:42:00;;;;;;;0.3;0.3;;;;;;;17.0;100.0;101780;;;;
2022/08/30 02:43:00;;;;;;;0.4;0.4;;;;;;;17.2;100.0;101780;;;;
2022/08/30 02:44:00;;;;;;;0.4;0.4;;;;;;;17.2;100.0;101780;;;;
2022/08/30 02:45:00;;;;;;;0.4;0.4;;;;;;;17.1;100.0;101780;;;;
2022/08/30 02:46:00;;;;;;;0.4;0.4;;;;;;;17.1;100.0;101780;;;;
2022/08/30 02:47:00;;;;;;;0.4;0.4;;;;;;;17.1;100.0;101780;;;;
2022/08/30 02:48:00;;;;;;;0.4;0.4;;;;;;;17.1;100.0;101780;;;;
2022/08/30 02:49:10;;;;;;;0.4;0.4;;;;;;;17.2;100.0;101780;;;;
2022/08/30 02:50:01;;;;;;;0.4;0.4;;;;;;;17.2;100.0;101780;;;;
2022/08/30 02:51:04;;;;;;;0.4;0.4;;;;;;;17.2;100.0;101790;;;;
2022/08/30 02:52:01;;;;;;;0.4;0.4;;;;;;;17.2;100.0;101790;;;;
2022/08/30 02:53:00;;;;;;;0.4;0.4;;;;;;;17.0;100.0;101780;;;;
2022/08/30 02:54:00;;;;;;;0.4;0.4;;;;;;;17.0;100.0;101780;;;;
2022/08/30 02:55:00;;;;;;;0.4;0.4;;;;;;;17.0;100.0;101780;;;;
2022/08/30 02:56:00;;;;;;;0.4;0.4;;;;;;;17.0;100.0;101780;;;;
2022/08/30 02:57:05;;;;;;;0.4;0.4;;;;;;;17.0;100.0;101780;;;;
2022/08/30 02:58:00;;;;;;;0.4;0.4;;;;;;;17.0;100.0;101780;;;;
2022/08/30 02:59:00;;;;;;;0.4;0.4;;;;;;;17.0;100.0;101780;;;;
2022/08/30 03:00:00;;;;;;;0.4;0.4;;;;;;;17.0;100.0;101780;;;;
2022/08/30 03:01:00;;;;;;;0.4;0.4;;;;;;;16.9;100.0;101780;;;;
2022/08/30 03:02:00;;;;;;;0.4;0.4;;;;;;;16.9;100.0;101780;;;;
2022/08/30 03:03:02;;;;;;;0.3;0.3;;;;;;;16.9;100.0;101780;;;;
2022/08/30 03:04:00;;;;;;;0.3;0.3;;;;;;;16.9;100.0;101780;;;;
2022/08/30 03:05:00;;;;;;;0.3;0.3;;;;;;;16.9;100.0;101770;;;;
2022/08/30 03:06:02;;;;;;;0.3;0.3;;;;;;;16.9;100.0;101770;;;;
2022/08/30 03:07:00;;;;;;;0.3;0.3;;;;;;;16.9;100.0;101770;;;;
2022/08/30 03:08:00;;;;;;;0.3;0.3;;;;;;;16.9;100.0;101770;;;;
2022/08/30 03:09:00;;;;;;;0.3;0.3;;;;;;;17.0;100.0;101760;;;;
2022/08/30 03:10:00;;;;;;;0.3;0.3;;;;;;;17.0;100.0;101760;;;;
2022/08/30 03:11:01;;;;;;;0.3;0.3;;;;;;;17.0;100.0;101760;;;;
2022/08/30 03:12:00;;;;;;;0.3;0.3;;;;;;;17.0;100.0;101760;;;;
2022/08/30 03:13:00;;;;;;;0.3;0.3;;;;;;;16.8;100.0;101770;;;;
2022/08/30 03:14:00;;;;;;;0.3;0.3;;;;;;;16.8;100.0;101770;;;;
2022/08/30 03:15:00;;;;;;;0.3;0.3;;;;;;;16.9;100.0;101770;;;;
2022/08/30 03:16:00;;;;;;;0.3;0.3;;;;;;;16.9;100.0;101770;;;;
2022/08/30 03:17:00;;;;;;;0.3;0.3;;;;;;;16.9;100.0;101770;;;;
2022/08/30 03:18:00;;;;;;;0.3;0.3;;;;;;;16.9;100.0;101770;;;;
2022/08/30 03:19:00;;;;;;;0.3;0.3;;;;;;;16.8;100.0;101770;;;;
2022/08/30 03:20:00;;;;;;;0.3;0.3;;;;;;;16.8;100.0;101770;;;;
2022/08/30 03:21:00;;;;;;;0.3;0.3;;;;;;;16.8;100.0;101770;;;;
2022/08/30 03:22:00;;;;;;;0.3;0.3;;;;;;;16.8;100.0;101770;;;;
2022/08/30 03:23:00;;;;;;;1.2;1.1;;;;;;;16.7;100.0;101770;;;;
2022/08/30 03:24:00;;;;;;;1.2;1.1;;;;;;;16.7;100.0;101770;;;;
2022/08/30 03:25:00;;;;;;;1.2;1.1;;;;;;;16.9;100.0;101770;;;;
2022/08/30 03:26:00;;;;;;;1.2;1.1;;;;;;;16.9;100.0;101770;;;;
2022/08/30 03:27:00;;;;;;;1.2;1.1;;;;;;;16.8;100.0;101770;;;;
2022/08/30 03:28:00;;;;;;;1.2;1.1;;;;;;;16.8;100.0;101770;;;;
2022/08/30 03:29:00;;;;;;;1.2;1.1;;;;;;;16.8;100.0;101760;;;;
2022/08/30 03:30:00;;;;;;;1.2;1.1;;;;;;;16.8;100.0;101760;;;;
2022/08/30 03:31:00;;;;;;;1.2;1.1;;;;;;;16.6;100.0;101760;;;;
2022/08/30 03:32:00;;;;;;;1.2;1.1;;;;;;;16.6;100.0;101760;;;;
2022/08/30 03:33:01;;;;;;;1.2;1.1;;;;;;;16.7;100.0;101760;;;;
2022/08/30 03:34:00;;;;;;;1.2;1.1;;;;;;;16.7;100.0;101760;;;;
2022/08/30 03:35:00;;;;;;;1.2;1.1;;;;;;;16.6;100.0;101760;;;;
2022/08/30 03:36:00;;;;;;;1.2;1.1;;;;;;;16.6;100.0;101760;;;;
2022/08/30 03:37:00;;;;;;;1.2;1.1;;;;;;;16.6;100.0;101760;;;;
2022/08/30 03:38:00;;;;;;;1.2;1.1;;;;;;;16.6;100.0;101760;;;;
2022/08/30 03:39:00;;;;;;;1.2;1.1;;;;;;;16.5;100.0;101760;;;;
2022/08/30 03:40:00;;;;;;;1.2;1.1;;;;;;;16.5;100.0;101760;;;;
2022/08/30 03:41:00;;;;;;;1.2;1.1;;;;;;;16.6;100.0;101770;;;;
2022/08/30 03:42:00;;;;;;;1.2;1.1;;;;;;;16.6;100.0;101770;;;;
2022/08/30 03:43:00;;;;;;;0.4;0.4;;;;;;;16.6;100.0;101770;;;;
2022/08/30 03:44:01;;;;;;;0.4;0.4;;;;;;;16.6;100.0;101770;;;;
2022/08/30 03:45:01;;;;;;;0.4;0.4;;;;;;;16.4;100.0;101770;;;;
2022/08/30 03:46:00;;;;;;;0.4;0.4;;;;;;;16.4;100.0;101770;;;;
2022/08/30 03:47:00;;;;;;;0.4;0.4;;;;;;;16.5;100.0;101770;;;;
2022/08/30 03:48:01;;;;;;;0.4;0.4;;;;;;;16.5;100.0;101770;;;;
2022/08/30 03:49:00;;;;;;;0.4;0.4;;;;;;;16.5;100.0;101770;;;;
2022/08/30 03:50:00;;;;;;;0.4;0.4;;;;;;;16.5;100.0;101770;;;;
2022/08/30 03:51:00;;;;;;;0.4;0.4;;;;;;;16.5;100.0;101770;;;;
2022/08/30 03:52:00;;;;;;;0.4;0.4;;;;;;;16.5;100.0;101770;;;;
2022/08/30 03:53:00;;;;;;;0.4;0.4;;;;;;;16.5;100.0;101770;;;;
2022/08/30 03:54:00;;;;;;;0.4;0.4;;;;;;;16.5;100.0;101770;;;;
2022/08/30 03:55:00;;;;;;;0.4;0.4;;;;;;;16.5;100.0;101770;;;;
2022/08/30 03:56:00;;;;;;;0.4;0.4;;;;;;;16.5;100.0;101770;;;;
2022/08/30 03:57:00;;;;;;;0.4;0.4;;;;;;;16.6;100.0;101770;;;;
2022/08/30 03:58:00;;;;;;;0.4;0.4;;;;;;;16.6;100.0;101770;;;;
2022/08/30 03:59:00;;;;;;;0.4;0.4;;;;;;;16.5;100.0;101770;;;;
2022/08/30 04:00:00;;;;;;;0.4;0.4;;;;;;;16.5;100.0;101770;;;;
2022/08/30 04:01:00;;;;;;;0.4;0.4;;;;;;;16.5;100.0;101770;;;;
2022/08/30 04:02:00;;;;;;;0.4;0.4;;;;;;;16.5;100.0;101770;;;;
2022/08/30 04:03:00;;;;;;;0.6;0.6;;;;;;;16.5;100.0;101770;;;;
2022/08/30 04:04:00;;;;;;;0.6;0.6;;;;;;;16.5;100.0;101770;;;;
2022/08/30 04:05:00;;;;;;;0.6;0.6;;;;;;;16.3;100.0;101770;;;;
2022/08/30 04:06:00;;;;;;;0.6;0.6;;;;;;;16.3;100.0;101770;;;;
2022/08/30 04:07:00;;;;;;;0.6;0.6;;;;;;;16.3;100.0;101770;;;;
2022/08/30 04:08:00;;;;;;;0.6;0.6;;;;;;;16.3;100.0;101770;;;;
2022/08/30 04:09:00;;;;;;;0.6;0.6;;;;;;;16.4;100.0;101770;;;;
2022/08/30 04:10:00;;;;;;;0.6;0.6;;;;;;;16.4;100.0;101770;;;;
2022/08/30 04:11:01;;;;;;;0.6;0.6;;;;;;;16.4;100.0;101780;;;;
2022/08/30 04:12:00;;;;;;;0.6;0.6;;;;;;;16.4;100.0;101780;;;;
2022/08/30 04:13:00;;;;;;;0.6;0.6;;;;;;;16.3;100.0;101770;;;;
2022/08/30 04:14:00;;;;;;;0.6;0.6;;;;;;;16.3;100.0;101770;;;;
2022/08/30 04:15:00;;;;;;;0.6;0.6;;;;;;;16.4;100.0;101780;;;;
2022/08/30 04:16:00;;;;;;;0.6;0.6;;;;;;;16.4;100.0;101780;;;;
2022/08/30 04:17:00;;;;;;;0.6;0.6;;;;;;;16.3;100.0;101780;;;;
2022/08/30 04:18:00;;;;;;;0.6;0.6;;;;;;;16.3;100.0;101780;;;;
2022/08/30 04:19:00;;;;;;;0.6;0.6;;;;;;;16.4;100.0;101770;;;;
2022/08/30 04:20:00;;;;;;;0.6;0.6;;;;;;;16.4;100.0;101770;;;;
2022/08/30 04:21:00;;;;;;;0.6;0.6;;;;;;;16.3;100.0;101780;;;;
2022/08/30 04:22:00;;;;;;;0.6;0.6;;;;;;;16.3;100.0;101780;;;;
2022/08/30 04:23:01;;;;;;;0.4;0.4;;;;;;;16.3;100.0;101780;;;;
2022/08/30 04:24:00;;;;;;;0.4;0.4;;;;;;;16.3;100.0;101780;;;;
2022/08/30 04:25:00;;;;;;;0.4;0.4;;;;;;;16.3;100.0;101780;;;;
2022/08/30 04:26:00;;;;;;;0.4;0.4;;;;;;;16.3;100.0;101780;;;;
2022/08/30 04:27:00;;;;;;;0.4;0.4;;;;;;;16.5;100.0;101780;;;;
2022/08/30 04:28:00;;;;;;;0.4;0.4;;;;;;;16.5;100.0;101780;;;;
2022/08/30 04:29:00;;;;;;;0.4;0.4;;;;;;;16.4;100.0;101780;;;;
2022/08/30 04:30:00;;;;;;;0.4;0.4;;;;;;;16.4;100.0;101780;;;;
2022/08/30 04:31:11;;;;;;;0.4;0.4;;;;;;;16.2;100.0;101780;;;;
2022/08/30 04:32:00;;;;;;;0.4;0.4;;;;;;;16.2;100.0;101780;;;;
2022/08/30 04:33:00;;;;;;;0.4;0.4;;;;;;;16.3;100.0;101780;;;;
2022/08/30 04:34:00;;;;;;;0.4;0.4;;;;;;;16.3;100.0;101780;;;;
2022/08/30 04:35:00;;;;;;;0.4;0.4;;;;;;;16.2;100.0;101780;;;;
2022/08/30 04:36:03;;;;;;;0.4;0.4;;;;;;;16.2;100.0;101780;;;;
2022/08/30 04:37:00;;;;;;;0.4;0.4;;;;;;;16.1;100.0;101780;;;;
2022/08/30 04:38:00;;;;;;;0.4;0.4;;;;;;;16.1;100.0;101780;;;;
2022/08/30 04:39:00;;;;;;;0.4;0.4;;;;;;;16.0;100.0;101790;;;;
2022/08/30 04:40:00;;;;;;;0.4;0.4;;;;;;;16.0;100.0;101790;;;;
2022/08/30 04:41:00;;;;;;;0.4;0.4;;;;;;;16.1;100.0;101790;;;;
2022/08/30 04:42:02;;;;;;;0.4;0.4;;;;;;;16.1;100.0;101790;;;;
2022/08/30 04:43:00;;;;;;;0.3;0.3;;;;;;;16.2;100.0;101790;;;;
2022/08/30 04:44:02;;;;;;;0.3;0.3;;;;;;;16.2;100.0;101790;;;;
2022/08/30 04:45:04;;;;;;;0.3;0.3;;;;;;;16.1;100.0;101790;;;;
2022/08/30 04:46:03;;;;;;;0.3;0.3;;;;;;;16.1;100.0;101790;;;;
2022/08/30 04:47:01;;;;;;;0.3;0.3;;;;;;;16.2;100.0;101790;;;;
2022/08/30 04:48:00;;;;;;;0.3;0.3;;;;;;;16.2;100.0;101790;;;;
2022/08/30 04:49:00;;;;;;;0.3;0.3;;;;;;;16.0;100.0;101790;;;;
2022/08/30 04:50:00;;;;;;;0.3;0.3;;;;;;;16.0;100.0;101790;;;;
2022/08/30 04:51:02;;;;;;;0.3;0.3;;;;;;;16.0;100.0;101790;;;;
2022/08/30 04:52:00;;;;;;;0.3;0.3;;;;;;;16.0;100.0;101790;;;;
2022/08/30 04:53:00;;;;;;;0.3;0.3;;;;;;;16.1;100.0;101790;;;;
2022/08/30 04:54:00;;;;;;;0.3;0.3;;;;;;;16.1;100.0;101790;;;;
2022/08/30 04:55:00;;;;;;;0.3;0.3;;;;;;;16.1;100.0;101800;;;;
2022/08/30 04:56:00;;;;;;;0.3;0.3;;;;;;;16.1;100.0;101800;;;;
2022/08/30 04:57:00;;;;;;;0.3;0.3;;;;;;;16.1;100.0;101800;;;;
2022/08/30 04:58:00;;;;;;;0.3;0.3;;;;;;;16.1;100.0;101800;;;;
2022/08/30 04:59:00;;;;;;;0.3;0.3;;;;;;;16.1;100.0;101800;;;;
2022/08/30 05:00:00;;;;;;;0.3;0.3;;;;;;;16.1;100.0;101800;;;;
2022/08/30 05:01:00;;;;;;;0.3;0.3;;;;;;;16.0;100.0;101810;;;;
2022/08/30 05:02:00;;;;;;;0.3;0.3;;;;;;;16.0;100.0;101810;;;;
2022/08/30 05:03:00;;;;;;;0.5;0.5;;;;;;;15.9;100.0;101810;;;;
2022/08/30 05:04:00;;;;;;;0.5;0.5;;;;;;;15.9;100.0;101810;;;;
2022/08/30 05:06:00;;;;;;;0.5;0.5;;;;;;;15.9;100.0;101800;;;;
2022/08/30 05:07:00;;;;;;;0.5;0.5;;;;;;;15.9;100.0;101810;;;;
2022/08/30 05:08:00;;;;;;;0.5;0.5;;;;;;;15.9;100.0;101810;;;;
2022/08/30 05:09:00;;;;;;;0.5;0.5;;;;;;;15.9;100.0;101810;;;;
2022/08/30 05:10:00;;;;;;;0.5;0.5;;;;;;;15.9;100.0;101810;;;;
2022/08/30 05:11:03;;;;;;;0.5;0.5;;;;;;;16.0;100.0;101810;;;;
2022/08/30 05:12:00;;;;;;;0.5;0.5;;;;;;;16.0;100.0;101810;;;;
2022/08/30 05:13:00;;;;;;;0.5;0.5;;;;;;;16.0;100.0;101810;;;;
2022/08/30 05:14:00;;;;;;;0.5;0.5;;;;;;;16.0;100.0;101810;;;;
2022/08/30 05:15:00;;;;;;;0.5;0.5;;;;;;;16.0;100.0;101810;;;;
2022/08/30 05:16:01;;;;;;;0.5;0.5;;;;;;;16.0;100.0;101810;;;;
2022/08/30 05:17:00;;;;;;;0.5;0.5;;;;;;;15.9;100.0;101810;;;;
2022/08/30 05:18:00;;;;;;;0.5;0.5;;;;;;;15.9;100.0;101810;;;;
2022/08/30 05:19:00;;;;;;;0.5;0.5;;;;;;;15.9;100.0;101810;;;;
2022/08/30 05:20:00;;;;;;;0.5;0.5;;;;;;;15.9;100.0;101810;;;;
2022/08/30 05:21:02;;;;;;;0.5;0.5;;;;;;;16.0;100.0;101810;;;;
2022/08/30 05:22:00;;;;;;;0.5;0.5;;;;;;;16.0;100.0;101810;;;;
2022/08/30 05:23:00;;;;;;;0.4;0.4;;;;;;;16.0;100.0;101810;;;;
2022/08/30 05:24:00;;;;;;;0.4;0.4;;;;;;;16.0;100.0;101810;;;;
2022/08/30 05:25:00;;;;;;;0.4;0.4;;;;;;;16.1;100.0;101810;;;;
2022/08/30 05:26:03;;;;;;;0.4;0.4;;;;;;;16.1;100.0;101810;;;;
2022/08/30 05:27:00;;;;;;;0.4;0.4;;;;;;;15.9;100.0;101810;;;;
2022/08/30 05:28:00;;;;;;;0.4;0.4;;;;;;;15.9;100.0;101810;;;;
2022/08/30 05:29:00;;;;;;;0.4;0.4;;;;;;;15.9;100.0;101810;;;;
2022/08/30 05:30:00;;;;;;;0.4;0.4;;;;;;;15.9;100.0;101810;;;;
2022/08/30 05:31:00;;;;;;;0.4;0.4;;;;;;;15.9;100.0;101820;;;;
2022/08/30 05:32:00;;;;;;;0.4;0.4;;;;;;;15.9;100.0;101820;;;;
2022/08/30 05:33:01;;;;;;;0.4;0.4;;;;;;;16.0;100.0;101820;;;;
2022/08/30 05:34:00;;;;;;;0.4;0.4;;;;;;;16.0;100.0;101820;;;;
2022/08/30 05:35:00;;;;;;;0.4;0.4;;;;;;;15.9;100.0;101820;;;;
2022/08/30 05:36:00;;;;;;;0.4;0.4;;;;;;;15.9;100.0;101820;;;;
2022/08/30 05:37:02;;;;;;;0.4;0.4;;;;;;;16.0;100.0;101820;;;;
2022/08/30 05:38:00;;;;;;;0.4;0.4;;;;;;;16.0;100.0;101820;;;;
2022/08/30 05:39:00;;;;;;;0.4;0.4;;;;;;;15.9;100.0;101820;;;;
2022/08/30 05:40:00;;;;;;;0.4;0.4;;;;;;;15.9;100.0;101820;;;;
2022/08/30 05:41:00;;;;;;;0.4;0.4;;;;;;;15.9;100.0;101820;;;;
2022/08/30 05:42:00;;;;;;;0.4;0.4;;;;;;;15.9;100.0;101820;;;;
2022/08/30 05:43:00;;;;;;;0.5;0.5;;;;;;;15.9;100.0;101820;;;;
2022/08/30 05:44:00;;;;;;;0.5;0.5;;;;;;;15.9;100.0;101820;;;;
2022/08/30 05:45:00;;;;;;;0.5;0.5;;;;;;;16.0;100.0;101820;;;;
2022/08/30 05:46:01;;;;;;;0.5;0.5;;;;;;;16.0;100.0;101820;;;;
2022/08/30 05:47:00;;;;;;;0.5;0.5;;;;;;;16.0;100.0;101830;;;;
2022/08/30 05:48:00;;;;;;;0.5;0.5;;;;;;;16.0;100.0;101830;;;;
2022/08/30 05:49:01;;;;;;;0.5;0.5;;;;;;;16.1;100.0;101830;;;;
2022/08/30 05:50:00;;;;;;;0.5;0.5;;;;;;;16.1;100.0;101830;;;;
2022/08/30 05:51:05;;;;;;;0.5;0.5;;;;;;;16.0;100.0;101830;;;;
2022/08/30 05:52:00;;;;;;;0.5;0.5;;;;;;;16.0;100.0;101830;;;;
2022/08/30 05:53:00;;;;;;;0.5;0.5;;;;;;;16.0;100.0;101830;;;;
2022/08/30 05:54:00;;;;;;;0.5;0.5;;;;;;;16.0;100.0;101830;;;;
2022/08/30 05:55:02;;;;;;;0.5;0.5;;;;;;;16.1;100.0;101830;;;;
2022/08/30 05:56:01;;;;;;;0.5;0.5;;;;;;;16.1;100.0;101830;;;;
2022/08/30 05:57:00;;;;;;;0.5;0.5;;;;;;;16.1;100.0;101830;;;;
2022/08/30 05:58:00;;;;;;;0.5;0.5;;;;;;;16.1;100.0;101830;;;;
2022/08/30 05:59:00;;;;;;;0.5;0.5;;;;;;;16.2;100.0;101830;;;;
2022/08/30 06:00:01;;;;;;;0.5;0.5;;;;;;;16.2;100.0;101830;;;;
2022/08/30 06:01:00;;;;;;;0.5;0.5;;;;;;;16.2;100.0;101830;;;;
2022/08/30 06:02:00;;;;;;;0.5;0.5;;;;;;;16.2;100.0;101830;;;;
2022/08/30 06:03:01;;;;;;;0.5;0.5;;;;;;;16.2;100.0;101830;;;;
2022/08/30 06:04:04;;;;;;;0.5;0.5;;;;;;;16.2;100.0;101830;;;;
2022/08/30 06:05:01;;;;;;;0.5;0.5;;;;;;;16.2;100.0;101830;;;;
2022/08/30 06:06:00;;;;;;;0.5;0.5;;;;;;;16.2;100.0;101830;;;;
2022/08/30 06:07:00;;;;;;;0.5;0.5;;;;;;;16.2;100.0;101830;;;;
2022/08/30 06:08:00;;;;;;;0.5;0.5;;;;;;;16.2;100.0;101830;;;;
2022/08/30 06:09:00;;;;;;;0.5;0.5;;;;;;;16.4;100.0;101840;;;;
2022/08/30 06:10:00;;;;;;;0.5;0.5;;;;;;;16.4;100.0;101840;;;;
2022/08/30 06:11:00;;;;;;;0.5;0.5;;;;;;;16.4;100.0;101840;;;;
2022/08/30 06:12:00;;;;;;;0.5;0.5;;;;;;;16.4;100.0;101840;;;;
2022/08/30 06:13:00;;;;;;;0.5;0.5;;;;;;;16.4;100.0;101830;;;;
2022/08/30 06:14:00;;;;;;;0.5;0.5;;;;;;;16.4;100.0;101830;;;;
2022/08/30 06:15:00;;;;;;;0.5;0.5;;;;;;;16.5;100.0;101830;;;;
2022/08/30 06:16:00;;;;;;;0.5;0.5;;;;;;;16.5;100.0;101830;;;;
2022/08/30 06:17:00;;;;;;;0.5;0.5;;;;;;;16.5;100.0;101830;;;;
2022/08/30 06:18:00;;;;;;;0.5;0.5;;;;;;;16.5;100.0;101830;;;;
2022/08/30 06:19:00;;;;;;;0.5;0.5;;;;;;;16.6;100.0;101830;;;;
2022/08/30 06:20:00;;;;;;;0.5;0.5;;;;;;;16.6;100.0;101830;;;;
2022/08/30 06:21:00;;;;;;;0.5;0.5;;;;;;;16.6;100.0;101840;;;;
2022/08/30 06:22:01;;;;;;;0.5;0.5;;;;;;;16.6;100.0;101840;;;;
2022/08/30 06:23:00;;;;;;;0.5;0.5;;;;;;;16.8;100.0;101840;;;;
2022/08/30 06:24:02;;;;;;;0.5;0.5;;;;;;;16.8;100.0;101840;;;;